Morioka, Japan
Current Conditions -  °F | °C
As of 8:00 AM on Saturday 29 Nov 2014 (Local Time) from RJSI Reporting Station
Rain Showers Rain Showers  
Wind Chill: 46°   Ceiling: 1000
Heat Index: 46°   Visibility: 1.5mi
Dew Point: 46°   Wind: 2mph
Humidity: 100%   Direction: NA
Pressure: 29.94"   Gusts: NA
Location:  39.7°N, 141.15°E
Report Text: RJSI 282300Z VRB02KT 2500 -SHRA BR FEW003 BKN010 BKN050 08/08 Q1014
Loading
Personal Weather Stations






























Interactive Weather Map New forecast layout! Learn more

10-Day Weather Forecast

Advertisements
Track Severe Weather on mobile